createdAt,value
2022-12-11T00:10:23.000Z,982.00
2022-12-11T00:24:59.000Z,982.01
2022-12-11T00:39:36.000Z,981.93
2022-12-11T00:54:13.000Z,981.96
2022-12-11T01:08:50.000Z,982.07
2022-12-11T01:23:25.000Z,981.98
2022-12-11T01:38:00.000Z,981.95
2022-12-11T01:52:37.000Z,981.92
2022-12-11T02:07:14.000Z,981.76
2022-12-11T02:21:50.000Z,981.87
2022-12-11T02:36:26.000Z,981.99
2022-12-11T02:51:01.000Z,981.82
2022-12-11T03:05:37.000Z,981.75
2022-12-11T03:20:14.000Z,981.74
2022-12-11T03:34:49.000Z,981.74
2022-12-11T03:49:26.000Z,981.73
2022-12-11T04:03:56.000Z,981.69
2022-12-11T04:18:33.000Z,981.64
2022-12-11T04:33:09.000Z,981.65
2022-12-11T04:47:47.000Z,981.58
2022-12-11T05:02:24.000Z,981.64
2022-12-11T05:16:59.000Z,981.52
2022-12-11T05:31:36.000Z,981.48
2022-12-11T05:46:14.000Z,981.39
2022-12-11T06:00:41.000Z,981.29
2022-12-11T06:15:15.000Z,981.26
2022-12-11T06:29:51.000Z,981.31
2022-12-11T06:44:28.000Z,981.13
2022-12-11T06:58:58.000Z,981.16
2022-12-11T07:13:35.000Z,981.24
2022-12-11T07:28:10.000Z,981.28
2022-12-11T07:42:46.000Z,981.25
2022-12-11T07:57:22.000Z,981.40
2022-12-11T08:11:54.000Z,981.36
2022-12-11T08:26:25.000Z,981.51
2022-12-11T08:40:58.000Z,981.43
2022-12-11T08:55:34.000Z,981.45
2022-12-11T09:10:10.000Z,981.43
2022-12-11T09:24:48.000Z,981.42
2022-12-11T09:39:25.000Z,981.32
2022-12-11T09:54:02.000Z,981.39
2022-12-11T10:08:39.000Z,981.23
2022-12-11T10:23:18.000Z,981.07
2022-12-11T10:37:49.000Z,980.86
2022-12-11T10:52:27.000Z,980.73
2022-12-11T11:07:04.000Z,980.68
2022-12-11T11:21:43.000Z,980.53
2022-12-11T11:36:14.000Z,980.42
2022-12-11T11:50:50.000Z,980.42
2022-12-11T12:05:26.000Z,980.40
2022-12-11T12:20:02.000Z,980.30
2022-12-11T12:34:40.000Z,980.10
2022-12-11T12:49:17.000Z,980.13
2022-12-11T13:03:54.000Z,980.03
2022-12-11T13:18:30.000Z,980.09
2022-12-11T13:33:07.000Z,980.05
2022-12-11T13:47:45.000Z,980.20
2022-12-11T14:02:18.000Z,980.33
2022-12-11T14:16:45.000Z,980.47
2022-12-11T14:31:22.000Z,980.49
2022-12-11T14:45:57.000Z,980.55
2022-12-11T15:00:27.000Z,980.58
2022-12-11T15:14:56.000Z,980.45
2022-12-11T15:29:26.000Z,980.53
2022-12-11T15:44:02.000Z,980.54
2022-12-11T15:58:39.000Z,980.64
2022-12-11T16:13:15.000Z,980.70
2022-12-11T16:27:51.000Z,980.70
2022-12-11T16:42:22.000Z,980.52
2022-12-11T16:56:58.000Z,980.61
2022-12-11T17:11:29.000Z,980.64
2022-12-11T17:26:08.000Z,980.62
2022-12-11T17:40:42.000Z,980.56
2022-12-11T17:55:18.000Z,980.56
2022-12-11T18:09:55.000Z,980.53
2022-12-11T18:24:30.000Z,980.64
2022-12-11T18:38:59.000Z,980.59
2022-12-11T18:53:31.000Z,980.55
2022-12-11T19:08:08.000Z,980.57
2022-12-11T19:22:42.000Z,980.60
2022-12-11T19:37:19.000Z,980.49
2022-12-11T19:51:56.000Z,980.59
2022-12-11T20:06:31.000Z,980.61
2022-12-11T20:21:08.000Z,980.49
2022-12-11T20:35:45.000Z,980.71
2022-12-11T20:50:14.000Z,980.53
2022-12-11T21:04:51.000Z,980.50
2022-12-11T21:19:25.000Z,980.53
2022-12-11T21:33:58.000Z,980.61
2022-12-11T21:48:36.000Z,980.66
2022-12-11T22:03:12.000Z,980.57
2022-12-11T22:17:49.000Z,980.66
2022-12-11T22:32:25.000Z,980.83
2022-12-11T22:47:00.000Z,980.81
2022-12-11T23:01:37.000Z,980.75
2022-12-11T23:16:14.000Z,980.74
2022-12-11T23:30:50.000Z,980.78
2022-12-11T23:45:22.000Z,981.04
2022-12-11T23:59:59.000Z,981.09
